Time;durP1;ratioP1;P1;durP2;ratioP2;P2;SDS_P1;SDS_P2;PMS_P1;PMS_P2;Temp;Humidity;BMP_temperature;BMP_pressure;BME280_temperature;BME280_humidity;BME280_pressure;Samples;Min_cycle;Max_cycle;Signal;HPM_P1;HPM_P2
2022/07/26 00:04:51;;;;;;;;;;;;;;;;;;10366423;28;20350;-73
2022/07/26 00:09:51;;;;;;;;;;;;;;;;;;10378723;28;19929;-73
2022/07/26 00:14:51;;;;;;;;;;;;;;;;;;10368395;28;20364;-73
2022/07/26 00:19:52;;;;;;;;;;;;;;;;;;10380766;28;19936;-72
2022/07/26 00:24:52;;;;;;;;;;;;;;;;;;10368337;28;19925;-72
2022/07/26 00:29:52;;;;;;;;;;;;;;;;;;10375872;28;19928;-73
2022/07/26 00:34:52;;;;;;;;;;;;;;;;;;10370061;28;19913;-72
2022/07/26 00:39:53;;;;;;;;;;;;;;;;;;10368313;28;19952;-72
2022/07/26 00:44:53;;;;;;;;;;;;;;;;;;10377857;28;20003;-72
2022/07/26 00:49:53;;;;;;;;;;;;;;;;;;10382451;28;20244;-74
2022/07/26 00:54:54;;;;;;;;;;;;;;;;;;10376500;28;20373;-73
2022/07/26 00:59:55;;;;;;;;;;;;;;;;;;10376725;28;19972;-73
2022/07/26 01:04:55;;;;;;;;;;;;;;;;;;10377676;28;20016;-73
2022/07/26 01:09:55;;;;;;;;;;;;;;;;;;10370236;28;19963;-73
2022/07/26 01:14:56;;;;;;;;;;;;;;;;;;10377316;28;19913;-73
2022/07/26 01:19:56;;;;;;;;;;;;;;;;;;10391658;28;19925;-73
2022/07/26 01:24:56;;;;;;;;;;;;;;;;;;10384900;28;19917;-71
2022/07/26 01:29:58;;;;;;;;;;;;;;;;;;10386667;28;20000;-72
2022/07/26 01:34:58;;;;;;;;;;;;;;;;;;10372672;28;19927;-74
2022/07/26 01:39:58;;;;;;;;;;;;;;;;;;10379872;28;19985;-73
2022/07/26 01:44:58;;;;;;;;;;;;;;;;;;10381659;28;19913;-76
2022/07/26 01:49:59;;;;;;;;;;;;;;;;;;10390719;28;19948;-76
2022/07/26 01:54:59;;;;;;;;;;;;;;;;;;10378486;28;19967;-74
2022/07/26 01:59:59;;;;;;;;;;;;;;;;;;10372378;28;19932;-73
2022/07/26 02:05:00;;;;;;;;;;;;;;;;;;10377380;28;19997;-72
2022/07/26 02:10:00;;;;;;;;;;;;;;;;;;10376042;28;19921;-72
2022/07/26 02:15:00;;;;;;;;;;;;;;;;;;10388159;28;19917;-72
2022/07/26 02:20:01;;;;;;;;;;;;;;;;;;10373825;28;20321;-73
2022/07/26 02:25:01;;;;;;;;;;;;;;;;;;10381010;28;19963;-72
2022/07/26 02:30:01;;;;;;;;;;;;;;;;;;10379236;28;20276;-71
2022/07/26 02:35:01;;;;;;;;;;;;;;;;;;10371748;28;20678;-72
2022/07/26 02:40:02;;;;;;;;;;;;;;;;;;10378363;28;20043;-73
2022/07/26 02:45:02;;;;;;;;;;;;;;;;;;10383401;28;19924;-73
2022/07/26 02:50:02;;;;;;;;;;;;;;;;;;10390020;28;19975;-72
2022/07/26 02:55:02;;;;;;;;;;;;;;;;;;10369190;28;19917;-72
2022/07/26 03:00:02;;;;;;;;;;;;;;;;;;10384364;28;19951;-72
2022/07/26 03:05:03;;;;;;;;;;;;;;;;;;10376641;28;19913;-72
2022/07/26 03:10:03;;;;;;;;;;;;;;;;;;10375473;28;19921;-72
2022/07/26 03:15:03;;;;;;;;;;;;;;;;;;10374585;28;20020;-72
2022/07/26 03:20:03;;;;;;;;;;;;;;;;;;10382896;28;19964;-71
2022/07/26 03:25:04;;;;;;;;;;;;;;;;;;10384020;28;19917;-73
2022/07/26 03:30:04;;;;;;;;;;;;;;;;;;10372840;28;19982;-73
2022/07/26 03:35:04;;;;;;;;;;;;;;;;;;10378639;28;19929;-73
2022/07/26 03:40:06;;;;;;;;;;;;;;;;;;10376577;28;19947;-72
2022/07/26 03:45:06;;;;;;;;;;;;;;;;;;10387059;28;19917;-72
2022/07/26 03:50:06;;;;;;;;;;;;;;;;;;10367853;28;19917;-72
2022/07/26 04:00:26;;;;;;;;;;;;;;;;;;10382912;28;20012;-72
2022/07/26 04:05:26;;;;;;;;;;;;;;;;;;10382069;28;19913;-72
2022/07/26 04:10:26;;;;;;;;;;;;;;;;;;10374761;28;19917;-74
2022/07/26 04:15:26;;;;;;;;;;;;;;;;;;10373536;28;19939;-72
2022/07/26 04:20:27;;;;;;;;;;;;;;;;;;10381961;28;19971;-72
2022/07/26 04:25:27;;;;;;;;;;;;;;;;;;10388657;28;20300;-71
2022/07/26 04:30:27;;;;;;;;;;;;;;;;;;10388735;28;19917;-69
2022/07/26 04:35:27;;;;;;;;;;;;;;;;;;10394120;28;19923;-74
2022/07/26 04:40:32;;;;;;;;;;;;;;;;;;10391302;28;19931;-73
2022/07/26 04:45:32;;;;;;;;;;;;;;;;;;10384226;28;19949;-69
2022/07/26 04:50:32;;;;;;;;;;;;;;;;;;10388506;28;19995;-69
2022/07/26 04:55:32;;;;;;;;;;;;;;;;;;10385912;28;20288;-70
2022/07/26 05:00:33;;;;;;;;;;;;;;;;;;10373080;28;20332;-69
2022/07/26 05:05:33;;;;;;;;;;;;;;;;;;10383410;28;20014;-71
2022/07/26 05:10:34;;;;;;;;;;;;;;;;;;10382657;28;19932;-70
2022/07/26 05:15:35;;;;;;;;;;;;;;;;;;10387503;28;19918;-69
2022/07/26 05:20:35;;;;;;;;;;;;;;;;;;10378720;28;20027;-70
2022/07/26 05:25:36;;;;;;;;;;;;;;;;;;10379216;28;20062;-69
2022/07/26 05:30:36;;;;;;;;;;;;;;;;;;10382452;28;19917;-70
2022/07/26 05:35:37;;;;;;;;;;;;;;;;;;10379387;28;20345;-71
2022/07/26 05:40:37;;;;;;;;;;;;;;;;;;10385616;28;19932;-72
2022/07/26 05:45:38;;;;;;;;;;;;;;;;;;10374316;28;19917;-70
2022/07/26 05:50:38;;;;;;;;;;;;;;;;;;10388435;28;19924;-69
2022/07/26 05:55:38;;;;;;;;;;;;;;;;;;10379223;28;20474;-69
2022/07/26 06:00:38;;;;;;;;;;;;;;;;;;10378467;28;19965;-69
2022/07/26 06:05:39;;;;;;;;;;;;;;;;;;10377874;28;20023;-70
2022/07/26 06:10:39;;;;;;;;;;;;;;;;;;10376262;28;19921;-70
2022/07/26 06:15:39;;;;;;;;;;;;;;;;;;10381054;28;19913;-70
2022/07/26 06:20:39;;;;;;;;;;;;;;;;;;10381065;28;20351;-70
2022/07/26 06:25:40;;;;;;;;;;;;;;;;;;10379235;28;21553;-70
2022/07/26 06:30:40;;;;;;;;;;;;;;;;;;10373043;28;20463;-71
2022/07/26 06:35:41;;;;;;;;;;;;;;;;;;10379856;28;20027;-69
2022/07/26 06:40:41;;;;;;;;;;;;;;;;;;10383396;28;20307;-70
2022/07/26 06:45:41;;;;;;;;;;;;;;;;;;10381563;28;19923;-68
2022/07/26 06:50:41;;;;;;;;;;;;;;;;;;10375151;28;19971;-69
2022/07/26 06:55:41;;;;;;;;;;;;;;;;;;10367480;28;20314;-71
2022/07/26 07:00:42;;;;;;;;;;;;;;;;;;10387521;28;20333;-71
2022/07/26 07:05:43;;;;;;;;;;;;;;;;;;10389167;28;20319;-71
2022/07/26 07:10:43;;;;;;;;;;;;;;;;;;10381344;28;19921;-70
2022/07/26 07:15:43;;;;;;;;;;;;;;;;;;10384662;28;20398;-69
2022/07/26 07:20:43;;;;;;;;;;;;;;;;;;10359719;28;20016;-70
2022/07/26 07:25:44;;;;;;;;;;;;;;;;;;10372428;28;19917;-70
2022/07/26 07:30:44;;;;;;;;;;;;;;;;;;10377917;28;19920;-70
2022/07/26 07:35:44;;;;;;;;;;;;;;;;;;10375322;28;19923;-70
2022/07/26 07:40:45;;;;;;;;;;;;;;;;;;10370201;28;19932;-70
2022/07/26 07:45:45;;;;;;;;;;;;;;;;;;10382299;28;19921;-69
2022/07/26 07:50:45;;;;;;;;;;;;;;;;;;10377252;28;20444;-69
2022/07/26 07:55:45;;;;;;;;;;;;;;;;;;10374254;28;19924;-69
2022/07/26 08:00:46;;;;;;;;;;;;;;;;;;10369376;28;19968;-70
2022/07/26 08:05:46;;;;;;;;;;;;;;;;;;10374987;28;20385;-70
2022/07/26 08:10:46;;;;;;;;;;;;;;;;;;10370775;28;20384;-70
2022/07/26 08:15:46;;;;;;;;;;;;;;;;;;10373379;28;19919;-69
2022/07/26 08:20:47;;;;;;;;;;;;;;;;;;10376508;28;20004;-70
2022/07/26 08:25:47;;;;;;;;;;;;;;;;;;10369938;28;19917;-70
2022/07/26 08:30:48;;;;;;;;;;;;;;;;;;10377695;28;20373;-69
2022/07/26 08:35:48;;;;;;;;;;;;;;;;;;10371818;28;19928;-69
2022/07/26 08:40:48;;;;;;;;;;;;;;;;;;10384530;28;19931;-71
2022/07/26 08:45:48;;;;;;;;;;;;;;;;;;10376186;28;19925;-70
2022/07/26 08:50:48;;;;;;;;;;;;;;;;;;10372684;28;19917;-71
2022/07/26 08:55:49;;;;;;;;;;;;;;;;;;10378015;28;19918;-70
2022/07/26 09:00:49;;;;;;;;;;;;;;;;;;10372790;28;20003;-70
2022/07/26 09:05:49;;;;;;;;;;;;;;;;;;10376932;28;19917;-70
2022/07/26 09:10:49;;;;;;;;;;;;;;;;;;10375897;28;20318;-70
2022/07/26 09:15:50;;;;;;;;;;;;;;;;;;10391676;28;20386;-70
2022/07/26 09:20:50;;;;;;;;;;;;;;;;;;10394152;28;20071;-70
2022/07/26 09:25:50;;;;;;;;;;;;;;;;;;10384814;28;19948;-70
2022/07/26 09:30:50;;;;;;;;;;;;;;;;;;10378305;28;20399;-68
2022/07/26 09:35:50;;;;;;;;;;;;;;;;;;10383068;28;21618;-70
2022/07/26 09:40:54;;;;;;;;;;;;;;;;;;10382562;28;19930;-69
2022/07/26 09:45:54;;;;;;;;;;;;;;;;;;10379961;28;20360;-72
2022/07/26 09:50:54;;;;;;;;;;;;;;;;;;10382919;28;19921;-70
2022/07/26 09:55:54;;;;;;;;;;;;;;;;;;10375104;28;19948;-70
2022/07/26 10:00:55;;;;;;;;;;;;;;;;;;10380532;28;19936;-71
2022/07/26 10:05:55;;;;;;;;;;;;;;;;;;10378260;28;19968;-70
2022/07/26 10:10:55;;;;;;;;;;;;;;;;;;10379520;28;19933;-72
2022/07/26 10:15:55;;;;;;;;;;;;;;;;;;10382548;28;19917;-70
2022/07/26 10:20:56;;;;;;;;;;;;;;;;;;10379616;28;19925;-71
2022/07/26 10:25:56;;;;;;;;;;;;;;;;;;10383263;28;19917;-69
2022/07/26 10:30:56;;;;;;;;;;;;;;;;;;10374925;28;19932;-71
2022/07/26 10:35:56;;;;;;;;;;;;;;;;;;10378488;28;19925;-70
2022/07/26 10:40:57;;;;;;;;;;;;;;;;;;10379549;28;19979;-70
2022/07/26 10:45:57;;;;;;;;;;;;;;;;;;10387014;28;19917;-69
2022/07/26 10:50:57;;;;;;;;;;;;;;;;;;10390585;28;20015;-71
2022/07/26 10:55:58;;;;;;;;;;;;;;;;;;10391612;28;19927;-70
2022/07/26 11:00:59;;;;;;;;;;;;;;;;;;10398024;28;20075;-70
2022/07/26 11:05:59;;;;;;;;;;;;;;;;;;10389360;28;19917;-70
2022/07/26 11:10:59;;;;;;;;;;;;;;;;;;10386468;28;19917;-72
2022/07/26 11:15:59;;;;;;;;;;;;;;;;;;10379490;28;20008;-71
2022/07/26 11:21:00;;;;;;;;;;;;;;;;;;10382798;28;19980;-71
2022/07/26 11:26:00;;;;;;;;;;;;;;;;;;10370412;28;19921;-70
2022/07/26 11:31:00;;;;;;;;;;;;;;;;;;10377645;28;20302;-69
2022/07/26 11:36:00;;;;;;;;;;;;;;;;;;10375389;28;20273;-70
2022/07/26 11:41:01;;;;;;;;;;;;;;;;;;10381682;28;19922;-70
2022/07/26 11:46:01;;;;;;;;;;;;;;;;;;10372947;28;19964;-70
2022/07/26 11:51:01;;;;;;;;;;;;;;;;;;10374809;28;19929;-71
2022/07/26 11:56:06;;;;;;;;;;;;;;;;;;10384145;28;19918;-69
2022/07/26 12:01:06;;;;;;;;;;;;;;;;;;10365657;28;19943;-70
2022/07/26 12:06:06;;;;;;;;;;;;;;;;;;10382349;28;20404;-70
2022/07/26 12:11:06;;;;;;;;;;;;;;;;;;10374597;28;19921;-70
2022/07/26 12:16:07;;;;;;;;;;;;;;;;;;10374185;28;19920;-71
2022/07/26 12:21:07;;;;;;;;;;;;;;;;;;10370565;28;19932;-72
2022/07/26 12:26:07;;;;;;;;;;;;;;;;;;10364767;28;19946;-70
2022/07/26 12:31:08;;;;;;;;;;;;;;;;;;10385808;28;20537;-71
2022/07/26 12:36:09;;;;;;;;;;;;;;;;;;10366336;28;20116;-73
2022/07/26 12:41:10;;;;;;;;;;;;;;;;;;10374678;28;19925;-73
2022/07/26 12:46:10;;;;;;;;;;;;;;;;;;10373130;28;19936;-73
2022/07/26 12:51:10;;;;;;;;;;;;;;;;;;10384626;28;19999;-74
2022/07/26 12:56:10;;;;;;;;;;;;;;;;;;10385992;28;20045;-72
2022/07/26 13:01:11;;;;;;;;;;;;;;;;;;10380141;28;20012;-74
2022/07/26 13:06:11;;;;;;;;;;;;;;;;;;10380218;28;19933;-72
2022/07/26 13:11:11;;;;;;;;;;;;;;;;;;10380363;28;19925;-77
2022/07/26 13:16:12;;;;;;;;;;;;;;;;;;10382541;28;20594;-73
2022/07/26 13:21:12;;;;;;;;;;;;;;;;;;10367854;28;19925;-75
2022/07/26 13:26:12;;;;;;;;;;;;;;;;;;10383491;28;19918;-74
2022/07/26 13:31:14;;;;;;;;;;;;;;;;;;10383572;28;19925;-76
2022/07/26 13:36:15;;;;;;;;;;;;;;;;;;10383420;28;20315;-74
2022/07/26 13:41:15;;;;;;;;;;;;;;;;;;10379275;28;19925;-73
2022/07/26 13:46:15;;;;;;;;;;;;;;;;;;10378064;28;19960;-72
2022/07/26 13:51:15;;;;;;;;;;;;;;;;;;10388849;28;19971;-73
2022/07/26 13:56:16;;;;;;;;;;;;;;;;;;10383362;28;20399;-71
2022/07/26 14:01:16;;;;;;;;;;;;;;;;;;10380656;28;19925;-72
2022/07/26 14:06:16;;;;;;;;;;;;;;;;;;10380605;28;19913;-73
2022/07/26 14:11:17;;;;;;;;;;;;;;;;;;10379137;28;19924;-72
2022/07/26 14:16:17;;;;;;;;;;;;;;;;;;10379510;28;19917;-72
2022/07/26 14:21:17;;;;;;;;;;;;;;;;;;10383251;28;19960;-71
2022/07/26 14:26:17;;;;;;;;;;;;;;;;;;10374184;28;19929;-73
2022/07/26 14:31:18;;;;;;;;;;;;;;;;;;10372460;28;19920;-72
2022/07/26 14:36:18;;;;;;;;;;;;;;;;;;10370432;28;19987;-72
2022/07/26 14:41:18;;;;;;;;;;;;;;;;;;10388034;28;19926;-73
2022/07/26 14:46:19;;;;;;;;;;;;;;;;;;10385161;28;19917;-73
2022/07/26 14:51:19;;;;;;;;;;;;;;;;;;10375611;28;19917;-72
2022/07/26 14:56:19;;;;;;;;;;;;;;;;;;10379635;28;20475;-72
2022/07/26 15:01:19;;;;;;;;;;;;;;;;;;10378858;28;20361;-73
2022/07/26 15:06:20;;;;;;;;;;;;;;;;;;10374570;28;19924;-73
2022/07/26 15:11:20;;;;;;;;;;;;;;;;;;10384674;28;20392;-73
2022/07/26 15:16:20;;;;;;;;;;;;;;;;;;10376993;28;20332;-73
2022/07/26 15:21:21;;;;;;;;;;;;;;;;;;10376087;28;19929;-73
2022/07/26 15:26:21;;;;;;;;;;;;;;;;;;10365892;28;19924;-72
2022/07/26 15:31:23;;;;;;;;;;;;;;;;;;10374471;28;19968;-73
2022/07/26 15:36:24;;;;;;;;;;;;;;;;;;10377631;28;19947;-72
2022/07/26 15:41:24;;;;;;;;;;;;;;;;;;10381461;28;20395;-72
2022/07/26 15:46:24;;;;;;;;;;;;;;;;;;10372334;28;19913;-74
2022/07/26 15:51:25;;;;;;;;;;;;;;;;;;10377579;28;19932;-71
2022/07/26 15:56:25;;;;;;;;;;;;;;;;;;10376466;28;20400;-72
2022/07/26 16:01:25;;;;;;;;;;;;;;;;;;10374665;28;20387;-73
2022/07/26 16:06:25;;;;;;;;;;;;;;;;;;10387267;28;20051;-73
2022/07/26 16:11:26;;;;;;;;;;;;;;;;;;10376910;28;20399;-72
2022/07/26 16:16:26;;;;;;;;;;;;;;;;;;10378811;28;19940;-73
2022/07/26 16:21:26;;;;;;;;;;;;;;;;;;10364558;28;20488;-73
2022/07/26 16:26:26;;;;;;;;;;;;;;;;;;10374414;28;20361;-74
2022/07/26 16:31:27;;;;;;;;;;;;;;;;;;10373767;28;20574;-72
2022/07/26 16:36:27;;;;;;;;;;;;;;;;;;10387282;28;20770;-72
2022/07/26 16:41:27;;;;;;;;;;;;;;;;;;10380019;28;19925;-72
2022/07/26 16:46:28;;;;;;;;;;;;;;;;;;10374956;28;19917;-71
2022/07/26 16:51:28;;;;;;;;;;;;;;;;;;10374315;28;19925;-72
2022/07/26 16:56:28;;;;;;;;;;;;;;;;;;10385415;28;20357;-72
2022/07/26 17:01:28;;;;;;;;;;;;;;;;;;10382434;28;20371;-72
2022/07/26 17:06:29;;;;;;;;;;;;;;;;;;10372875;28;19917;-71
2022/07/26 17:11:29;;;;;;;;;;;;;;;;;;10374464;28;19926;-74
2022/07/26 17:16:29;;;;;;;;;;;;;;;;;;10373105;28;19917;-71
2022/07/26 17:21:30;;;;;;;;;;;;;;;;;;10367264;28;20029;-74
2022/07/26 17:26:31;;;;;;;;;;;;;;;;;;10382701;28;19913;-72
2022/07/26 17:31:31;;;;;;;;;;;;;;;;;;10385480;28;19917;-73
2022/07/26 17:36:31;;;;;;;;;;;;;;;;;;10380045;28;20285;-72
2022/07/26 17:41:31;;;;;;;;;;;;;;;;;;10377498;28;20418;-73
2022/07/26 17:46:32;;;;;;;;;;;;;;;;;;10388206;28;20104;-72
2022/07/26 17:51:32;;;;;;;;;;;;;;;;;;10384818;28;20364;-73
2022/07/26 17:56:32;;;;;;;;;;;;;;;;;;10386680;28;20188;-71
2022/07/26 18:01:32;;;;;;;;;;;;;;;;;;10376728;28;20460;-72
2022/07/26 18:06:33;;;;;;;;;;;;;;;;;;10377439;28;19924;-72
2022/07/26 18:11:33;;;;;;;;;;;;;;;;;;10385491;28;19921;-74
2022/07/26 18:16:33;;;;;;;;;;;;;;;;;;10386402;28;19913;-74
2022/07/26 18:21:33;;;;;;;;;;;;;;;;;;10387158;28;19925;-72
2022/07/26 18:26:34;;;;;;;;;;;;;;;;;;10372860;28;19972;-74
2022/07/26 18:31:34;;;;;;;;;;;;;;;;;;10376686;28;20468;-71
2022/07/26 18:36:34;;;;;;;;;;;;;;;;;;10377865;28;19921;-74
2022/07/26 18:41:34;;;;;;;;;;;;;;;;;;10377022;28;19928;-72
2022/07/26 18:46:35;;;;;;;;;;;;;;;;;;10395074;28;19925;-72
2022/07/26 18:51:35;;;;;;;;;;;;;;;;;;10369046;28;20642;-73
2022/07/26 18:56:35;;;;;;;;;;;;;;;;;;10376123;28;20558;-71
2022/07/26 19:01:35;;;;;;;;;;;;;;;;;;10374537;28;20242;-73
2022/07/26 19:06:37;;;;;;;;;;;;;;;;;;10387283;28;19940;-74
2022/07/26 19:11:37;;;;;;;;;;;;;;;;;;10380475;28;19956;-73
2022/07/26 19:16:37;;;;;;;;;;;;;;;;;;10379295;28;19996;-72
2022/07/26 19:21:39;;;;;;;;;;;;;;;;;;10375296;28;19990;-74
2022/07/26 19:26:41;;;;;;;;;;;;;;;;;;10372293;28;19917;-73
2022/07/26 19:31:44;;;;;;;;;;;;;;;;;;10370326;28;19917;-73
2022/07/26 19:36:44;;;;;;;;;;;;;;;;;;10375333;28;19957;-74
2022/07/26 19:41:46;;;;;;;;;;;;;;;;;;10389094;28;20020;-74
2022/07/26 19:46:47;;;;;;;;;;;;;;;;;;10380573;28;19924;-72
2022/07/26 19:51:47;;;;;;;;;;;;;;;;;;10384182;28;19921;-73
2022/07/26 19:56:47;;;;;;;;;;;;;;;;;;10381399;28;20357;-73
2022/07/26 20:01:50;;;;;;;;;;;;;;;;;;10367869;28;19987;-74
2022/07/26 20:06:50;;;;;;;;;;;;;;;;;;10374911;28;19936;-72
2022/07/26 20:11:51;;;;;;;;;;;;;;;;;;10385897;28;20000;-73
2022/07/26 20:16:51;;;;;;;;;;;;;;;;;;10380471;28;19918;-73
2022/07/26 20:21:51;;;;;;;;;;;;;;;;;;10375139;28;19925;-72
2022/07/26 20:26:51;;;;;;;;;;;;;;;;;;10379527;28;19956;-75
2022/07/26 20:31:52;;;;;;;;;;;;;;;;;;10361882;28;19939;-74
2022/07/26 20:36:53;;;;;;;;;;;;;;;;;;10371404;28;19988;-75
2022/07/26 20:41:53;;;;;;;;;;;;;;;;;;10370455;28;19933;-74
2022/07/26 20:46:53;;;;;;;;;;;;;;;;;;10366670;28;19913;-76
2022/07/26 20:51:53;;;;;;;;;;;;;;;;;;10375993;28;20365;-75
2022/07/26 20:56:54;;;;;;;;;;;;;;;;;;10374968;28;19988;-75
2022/07/26 21:01:54;;;;;;;;;;;;;;;;;;10367258;28;19976;-74
2022/07/26 21:06:54;;;;;;;;;;;;;;;;;;10383979;28;20150;-73
2022/07/26 21:11:54;;;;;;;;;;;;;;;;;;10373092;28;20054;-74
2022/07/26 21:16:55;;;;;;;;;;;;;;;;;;10380936;28;20384;-75
2022/07/26 21:21:55;;;;;;;;;;;;;;;;;;10387298;28;19984;-75
2022/07/26 21:26:56;;;;;;;;;;;;;;;;;;10395697;28;19913;-75
2022/07/26 21:31:56;;;;;;;;;;;;;;;;;;10376456;28;19963;-74
2022/07/26 21:36:56;;;;;;;;;;;;;;;;;;10400036;28;19924;-74
2022/07/26 21:41:56;;;;;;;;;;;;;;;;;;10379050;28;19928;-74
2022/07/26 21:46:57;;;;;;;;;;;;;;;;;;10399493;28;19929;-74
2022/07/26 21:51:57;;;;;;;;;;;;;;;;;;10391712;28;19913;-73
2022/07/26 21:56:57;;;;;;;;;;;;;;;;;;10398327;28;20308;-73
2022/07/26 22:01:58;;;;;;;;;;;;;;;;;;10365870;28;20019;-74
2022/07/26 22:06:58;;;;;;;;;;;;;;;;;;10377790;28;19913;-74
2022/07/26 22:11:59;;;;;;;;;;;;;;;;;;10381306;28;19928;-74
2022/07/26 22:16:59;;;;;;;;;;;;;;;;;;10395373;28;20016;-74
2022/07/26 22:22:01;;;;;;;;;;;;;;;;;;10389725;28;19928;-72
2022/07/26 22:27:01;;;;;;;;;;;;;;;;;;10378526;28;19917;-74
2022/07/26 22:32:01;;;;;;;;;;;;;;;;;;10376921;28;19917;-72
2022/07/26 22:37:01;;;;;;;;;;;;;;;;;;10392744;28;19917;-73
2022/07/26 22:42:02;;;;;;;;;;;;;;;;;;10383303;28;20040;-72
2022/07/26 22:47:02;;;;;;;;;;;;;;;;;;10380734;28;19960;-73
2022/07/26 22:52:02;;;;;;;;;;;;;;;;;;10378483;28;19921;-73
2022/07/26 22:57:02;;;;;;;;;;;;;;;;;;10377873;28;19917;-75
2022/07/26 23:02:03;;;;;;;;;;;;;;;;;;10374390;28;19990;-73
2022/07/26 23:07:03;;;;;;;;;;;;;;;;;;10377995;28;19928;-73
2022/07/26 23:12:03;;;;;;;;;;;;;;;;;;10382381;28;19921;-74
2022/07/26 23:17:03;;;;;;;;;;;;;;;;;;10385305;28;19917;-72
2022/07/26 23:22:04;;;;;;;;;;;;;;;;;;10371189;28;19929;-73
2022/07/26 23:27:04;;;;;;;;;;;;;;;;;;10371636;28;19917;-73
2022/07/26 23:32:04;;;;;;;;;;;;;;;;;;10376394;28;19978;-73
2022/07/26 23:37:04;;;;;;;;;;;;;;;;;;10379833;28;20257;-72
2022/07/26 23:42:06;;;;;;;;;;;;;;;;;;10381325;28;19929;-73
2022/07/26 23:47:06;;;;;;;;;;;;;;;;;;10358033;28;19917;-72
2022/07/26 23:52:06;;;;;;;;;;;;;;;;;;10373136;28;19924;-72
2022/07/26 23:57:06;;;;;;;;;;;;;;;;;;10373204;28;19913;-72
